sensor_id;sensor_type;location;lat;lon;timestamp;P1;durP1;ratioP1;P2;durP2;ratioP2
22955;SDS011;40888;48.148;11.526;2023-04-16T00:02:10;5.20;;;4.70;;
22955;SDS011;40888;48.148;11.526;2023-04-16T00:04:36;5.23;;;4.73;;
22955;SDS011;40888;48.148;11.526;2023-04-16T00:07:02;5.13;;;4.73;;
22955;SDS011;40888;48.148;11.526;2023-04-16T00:09:28;5.83;;;5.33;;
22955;SDS011;40888;48.148;11.526;2023-04-16T00:11:53;5.97;;;5.47;;
22955;SDS011;40888;48.148;11.526;2023-04-16T00:14:19;7.27;;;5.67;;
22955;SDS011;40888;48.148;11.526;2023-04-16T00:16:45;6.33;;;5.73;;
22955;SDS011;40888;48.148;11.526;2023-04-16T00:19:11;6.40;;;5.90;;
22955;SDS011;40888;48.148;11.526;2023-04-16T00:21:37;6.77;;;6.17;;
22955;SDS011;40888;48.148;11.526;2023-04-16T00:24:02;7.57;;;6.87;;
22955;SDS011;40888;48.148;11.526;2023-04-16T00:26:28;6.80;;;6.20;;
22955;SDS011;40888;48.148;11.526;2023-04-16T00:28:54;8.53;;;7.10;;
22955;SDS011;40888;48.148;11.526;2023-04-16T00:31:29;8.23;;;7.43;;
22955;SDS011;40888;48.148;11.526;2023-04-16T00:33:56;8.03;;;7.33;;
22955;SDS011;40888;48.148;11.526;2023-04-16T00:36:22;9.63;;;7.83;;
22955;SDS011;40888;48.148;11.526;2023-04-16T00:38:49;9.03;;;7.97;;
22955;SDS011;40888;48.148;11.526;2023-04-16T00:41:15;8.50;;;7.60;;
22955;SDS011;40888;48.148;11.526;2023-04-16T00:43:41;7.97;;;7.27;;
22955;SDS011;40888;48.148;11.526;2023-04-16T00:46:07;8.50;;;7.57;;
22955;SDS011;40888;48.148;11.526;2023-04-16T00:48:33;8.73;;;7.83;;
22955;SDS011;40888;48.148;11.526;2023-04-16T00:51:00;8.87;;;7.97;;
22955;SDS011;40888;48.148;11.526;2023-04-16T00:53:28;8.40;;;7.60;;
22955;SDS011;40888;48.148;11.526;2023-04-16T00:55:55;7.50;;;6.80;;
22955;SDS011;40888;48.148;11.526;2023-04-16T00:58:21;7.93;;;6.77;;
22955;SDS011;40888;48.148;11.526;2023-04-16T01:00:47;7.63;;;6.93;;
22955;SDS011;40888;48.148;11.526;2023-04-16T01:03:13;8.27;;;7.47;;
22955;SDS011;40888;48.148;11.526;2023-04-16T01:05:39;7.63;;;6.83;;
22955;SDS011;40888;48.148;11.526;2023-04-16T01:08:05;7.63;;;6.83;;
22955;SDS011;40888;48.148;11.526;2023-04-16T01:10:30;7.47;;;6.80;;
22955;SDS011;40888;48.148;11.526;2023-04-16T01:12:56;6.93;;;6.33;;
22955;SDS011;40888;48.148;11.526;2023-04-16T01:15:22;6.80;;;6.20;;
22955;SDS011;40888;48.148;11.526;2023-04-16T01:17:47;6.57;;;5.97;;
22955;SDS011;40888;48.148;11.526;2023-04-16T01:20:13;6.00;;;5.50;;
22955;SDS011;40888;48.148;11.526;2023-04-16T01:22:39;6.07;;;5.47;;
22955;SDS011;40888;48.148;11.526;2023-04-16T01:25:05;6.20;;;5.60;;
22955;SDS011;40888;48.148;11.526;2023-04-16T01:27:31;6.00;;;5.43;;
22955;SDS011;40888;48.148;11.526;2023-04-16T01:29:57;6.13;;;5.40;;
22955;SDS011;40888;48.148;11.526;2023-04-16T01:32:22;5.37;;;4.87;;
22955;SDS011;40888;48.148;11.526;2023-04-16T01:34:48;5.40;;;4.90;;
22955;SDS011;40888;48.148;11.526;2023-04-16T01:37:14;5.13;;;4.67;;
22955;SDS011;40888;48.148;11.526;2023-04-16T01:39:40;4.87;;;4.47;;
22955;SDS011;40888;48.148;11.526;2023-04-16T01:42:05;5.33;;;4.83;;
22955;SDS011;40888;48.148;11.526;2023-04-16T01:44:31;5.00;;;4.60;;
22955;SDS011;40888;48.148;11.526;2023-04-16T01:46:57;4.93;;;4.50;;
22955;SDS011;40888;48.148;11.526;2023-04-16T01:49:22;6.50;;;5.80;;
22955;SDS011;40888;48.148;11.526;2023-04-16T01:51:48;5.67;;;5.03;;
22955;SDS011;40888;48.148;11.526;2023-04-16T01:54:14;6.53;;;5.93;;
22955;SDS011;40888;48.148;11.526;2023-04-16T01:56:40;6.10;;;5.60;;
22955;SDS011;40888;48.148;11.526;2023-04-16T01:59:05;6.47;;;5.87;;
22955;SDS011;40888;48.148;11.526;2023-04-16T02:01:31;6.67;;;5.97;;
22955;SDS011;40888;48.148;11.526;2023-04-16T02:03:57;8.27;;;7.43;;
22955;SDS011;40888;48.148;11.526;2023-04-16T02:06:23;7.10;;;6.40;;
22955;SDS011;40888;48.148;11.526;2023-04-16T02:08:48;7.07;;;5.87;;
22955;SDS011;40888;48.148;11.526;2023-04-16T02:11:14;6.87;;;5.93;;
22955;SDS011;40888;48.148;11.526;2023-04-16T02:13:40;7.33;;;6.17;;
22955;SDS011;40888;48.148;11.526;2023-04-16T02:16:06;7.00;;;6.30;;
22955;SDS011;40888;48.148;11.526;2023-04-16T02:18:31;6.77;;;6.10;;
22955;SDS011;40888;48.148;11.526;2023-04-16T02:20:57;7.70;;;6.90;;
22955;SDS011;40888;48.148;11.526;2023-04-16T02:23:24;7.10;;;6.50;;
22955;SDS011;40888;48.148;11.526;2023-04-16T02:25:50;6.83;;;6.23;;
22955;SDS011;40888;48.148;11.526;2023-04-16T02:28:15;7.53;;;6.63;;
22955;SDS011;40888;48.148;11.526;2023-04-16T02:30:41;7.83;;;7.03;;
22955;SDS011;40888;48.148;11.526;2023-04-16T02:33:09;7.50;;;6.80;;
22955;SDS011;40888;48.148;11.526;2023-04-16T02:35:37;7.93;;;7.13;;
22955;SDS011;40888;48.148;11.526;2023-04-16T02:38:03;8.37;;;7.57;;
22955;SDS011;40888;48.148;11.526;2023-04-16T02:40:29;8.40;;;7.30;;
22955;SDS011;40888;48.148;11.526;2023-04-16T02:42:56;9.03;;;8.10;;
22955;SDS011;40888;48.148;11.526;2023-04-16T02:45:22;8.53;;;7.50;;
22955;SDS011;40888;48.148;11.526;2023-04-16T02:47:48;8.37;;;7.47;;
22955;SDS011;40888;48.148;11.526;2023-04-16T02:50:14;8.63;;;7.73;;
22955;SDS011;40888;48.148;11.526;2023-04-16T02:52:40;8.93;;;7.87;;
22955;SDS011;40888;48.148;11.526;2023-04-16T02:55:06;10.00;;;7.53;;
22955;SDS011;40888;48.148;11.526;2023-04-16T02:57:33;8.27;;;7.47;;
22955;SDS011;40888;48.148;11.526;2023-04-16T02:59:59;7.90;;;7.10;;
22955;SDS011;40888;48.148;11.526;2023-04-16T03:02:25;9.00;;;8.10;;
22955;SDS011;40888;48.148;11.526;2023-04-16T03:04:51;8.57;;;7.77;;
22955;SDS011;40888;48.148;11.526;2023-04-16T03:07:18;7.93;;;7.13;;
22955;SDS011;40888;48.148;11.526;2023-04-16T03:09:43;8.17;;;7.37;;
22955;SDS011;40888;48.148;11.526;2023-04-16T03:12:09;7.10;;;6.47;;
22955;SDS011;40888;48.148;11.526;2023-04-16T03:14:35;7.60;;;6.90;;
22955;SDS011;40888;48.148;11.526;2023-04-16T03:17:01;5.93;;;5.43;;
22955;SDS011;40888;48.148;11.526;2023-04-16T03:19:26;7.27;;;6.67;;
22955;SDS011;40888;48.148;11.526;2023-04-16T03:21:52;7.83;;;7.13;;
22955;SDS011;40888;48.148;11.526;2023-04-16T03:24:18;6.30;;;5.67;;
22955;SDS011;40888;48.148;11.526;2023-04-16T03:26:44;5.73;;;5.20;;
22955;SDS011;40888;48.148;11.526;2023-04-16T03:29:09;5.57;;;5.00;;
22955;SDS011;40888;48.148;11.526;2023-04-16T03:31:35;6.03;;;5.50;;
22955;SDS011;40888;48.148;11.526;2023-04-16T03:34:01;6.50;;;5.90;;
22955;SDS011;40888;48.148;11.526;2023-04-16T03:36:26;6.37;;;5.77;;
22955;SDS011;40888;48.148;11.526;2023-04-16T03:38:53;5.87;;;5.37;;
22955;SDS011;40888;48.148;11.526;2023-04-16T03:41:18;5.47;;;4.97;;
22955;SDS011;40888;48.148;11.526;2023-04-16T03:43:44;5.73;;;5.23;;
22955;SDS011;40888;48.148;11.526;2023-04-16T03:46:10;6.30;;;5.70;;
22955;SDS011;40888;48.148;11.526;2023-04-16T03:48:36;5.90;;;5.30;;
22955;SDS011;40888;48.148;11.526;2023-04-16T03:51:01;6.30;;;5.73;;
22955;SDS011;40888;48.148;11.526;2023-04-16T03:53:27;6.30;;;5.70;;
22955;SDS011;40888;48.148;11.526;2023-04-16T03:55:53;6.37;;;5.77;;
22955;SDS011;40888;48.148;11.526;2023-04-16T03:58:19;6.83;;;6.23;;
22955;SDS011;40888;48.148;11.526;2023-04-16T04:00:45;6.57;;;5.97;;
22955;SDS011;40888;48.148;11.526;2023-04-16T04:03:11;6.43;;;5.93;;
22955;SDS011;40888;48.148;11.526;2023-04-16T04:05:38;6.33;;;5.77;;
22955;SDS011;40888;48.148;11.526;2023-04-16T04:08:04;7.93;;;7.23;;
22955;SDS011;40888;48.148;11.526;2023-04-16T04:10:31;7.03;;;6.40;;
22955;SDS011;40888;48.148;11.526;2023-04-16T04:12:57;7.40;;;6.80;;
22955;SDS011;40888;48.148;11.526;2023-04-16T04:15:23;7.93;;;6.40;;
22955;SDS011;40888;48.148;11.526;2023-04-16T04:17:48;7.53;;;6.83;;
22955;SDS011;40888;48.148;11.526;2023-04-16T04:20:14;7.67;;;6.97;;
22955;SDS011;40888;48.148;11.526;2023-04-16T04:22:40;7.77;;;7.07;;
22955;SDS011;40888;48.148;11.526;2023-04-16T04:25:06;9.27;;;7.77;;
22955;SDS011;40888;48.148;11.526;2023-04-16T04:27:34;7.80;;;7.10;;
22955;SDS011;40888;48.148;11.526;2023-04-16T04:30:00;8.83;;;8.03;;
22955;SDS011;40888;48.148;11.526;2023-04-16T04:32:25;8.90;;;7.43;;
22955;SDS011;40888;48.148;11.526;2023-04-16T04:34:51;8.57;;;7.77;;
22955;SDS011;40888;48.148;11.526;2023-04-16T04:37:17;9.33;;;8.53;;
22955;SDS011;40888;48.148;11.526;2023-04-16T04:39:42;8.33;;;7.53;;
22955;SDS011;40888;48.148;11.526;2023-04-16T04:42:08;9.40;;;8.57;;
22955;SDS011;40888;48.148;11.526;2023-04-16T04:44:34;9.00;;;8.10;;
22955;SDS011;40888;48.148;11.526;2023-04-16T04:47:00;9.70;;;8.80;;
22955;SDS011;40888;48.148;11.526;2023-04-16T04:49:25;9.73;;;8.57;;
22955;SDS011;40888;48.148;11.526;2023-04-16T04:51:54;9.20;;;8.40;;
22955;SDS011;40888;48.148;11.526;2023-04-16T04:54:20;9.30;;;8.40;;
22955;SDS011;40888;48.148;11.526;2023-04-16T04:56:46;9.07;;;8.17;;
22955;SDS011;40888;48.148;11.526;2023-04-16T04:59:11;9.27;;;8.37;;
22955;SDS011;40888;48.148;11.526;2023-04-16T05:01:37;8.47;;;7.60;;
22955;SDS011;40888;48.148;11.526;2023-04-16T05:04:03;9.63;;;8.63;;
22955;SDS011;40888;48.148;11.526;2023-04-16T05:06:29;9.53;;;8.60;;
22955;SDS011;40888;48.148;11.526;2023-04-16T05:08:55;10.50;;;8.10;;
22955;SDS011;40888;48.148;11.526;2023-04-16T05:11:21;9.33;;;8.50;;
22955;SDS011;40888;48.148;11.526;2023-04-16T05:13:47;8.00;;;7.20;;
22955;SDS011;40888;48.148;11.526;2023-04-16T05:16:12;8.13;;;7.33;;
22955;SDS011;40888;48.148;11.526;2023-04-16T05:18:38;9.23;;;8.43;;
22955;SDS011;40888;48.148;11.526;2023-04-16T05:21:04;9.17;;;8.27;;
22955;SDS011;40888;48.148;11.526;2023-04-16T05:23:29;9.93;;;9.03;;
22955;SDS011;40888;48.148;11.526;2023-04-16T05:25:55;8.57;;;7.70;;
22955;SDS011;40888;48.148;11.526;2023-04-16T05:28:21;9.17;;;8.37;;
22955;SDS011;40888;48.148;11.526;2023-04-16T05:30:47;8.00;;;6.60;;
22955;SDS011;40888;48.148;11.526;2023-04-16T05:33:13;8.27;;;7.43;;
22955;SDS011;40888;48.148;11.526;2023-04-16T05:35:39;9.73;;;8.80;;
22955;SDS011;40888;48.148;11.526;2023-04-16T05:38:05;8.37;;;7.60;;
22955;SDS011;40888;48.148;11.526;2023-04-16T05:40:30;8.23;;;7.43;;
22955;SDS011;40888;48.148;11.526;2023-04-16T05:42:56;8.63;;;7.83;;
22955;SDS011;40888;48.148;11.526;2023-04-16T05:45:22;8.07;;;7.33;;
22955;SDS011;40888;48.148;11.526;2023-04-16T05:47:48;5.63;;;5.13;;
22955;SDS011;40888;48.148;11.526;2023-04-16T05:50:13;7.27;;;6.67;;
22955;SDS011;40888;48.148;11.526;2023-04-16T05:52:39;7.07;;;6.47;;
22955;SDS011;40888;48.148;11.526;2023-04-16T05:55:05;5.50;;;5.00;;
22955;SDS011;40888;48.148;11.526;2023-04-16T05:57:31;6.33;;;5.70;;
22955;SDS011;40888;48.148;11.526;2023-04-16T05:59:57;5.67;;;5.17;;
22955;SDS011;40888;48.148;11.526;2023-04-16T06:02:23;5.00;;;4.60;;
22955;SDS011;40888;48.148;11.526;2023-04-16T06:04:49;4.53;;;4.13;;
22955;SDS011;40888;48.148;11.526;2023-04-16T06:07:14;4.70;;;4.30;;
22955;SDS011;40888;48.148;11.526;2023-04-16T06:09:40;4.73;;;4.33;;
22955;SDS011;40888;48.148;11.526;2023-04-16T06:12:06;4.20;;;3.90;;
22955;SDS011;40888;48.148;11.526;2023-04-16T06:14:32;4.10;;;3.80;;
22955;SDS011;40888;48.148;11.526;2023-04-16T06:16:57;3.80;;;3.60;;
22955;SDS011;40888;48.148;11.526;2023-04-16T06:19:23;3.50;;;3.20;;
22955;SDS011;40888;48.148;11.526;2023-04-16T06:21:49;3.70;;;3.40;;
22955;SDS011;40888;48.148;11.526;2023-04-16T06:24:15;2.60;;;2.40;;
22955;SDS011;40888;48.148;11.526;2023-04-16T06:26:42;2.93;;;2.73;;
22955;SDS011;40888;48.148;11.526;2023-04-16T06:29:08;3.13;;;2.87;;
22955;SDS011;40888;48.148;11.526;2023-04-16T06:31:35;2.70;;;2.50;;
22955;SDS011;40888;48.148;11.526;2023-04-16T06:34:01;2.60;;;2.50;;
22955;SDS011;40888;48.148;11.526;2023-04-16T06:36:27;2.50;;;2.30;;
22955;SDS011;40888;48.148;11.526;2023-04-16T06:38:53;2.20;;;2.10;;
22955;SDS011;40888;48.148;11.526;2023-04-16T06:41:19;2.10;;;1.90;;
22955;SDS011;40888;48.148;11.526;2023-04-16T06:43:46;1.70;;;1.60;;
22955;SDS011;40888;48.148;11.526;2023-04-16T06:46:12;1.60;;;1.50;;
22955;SDS011;40888;48.148;11.526;2023-04-16T06:48:38;1.63;;;1.43;;
22955;SDS011;40888;48.148;11.526;2023-04-16T06:51:03;1.43;;;1.37;;
22955;SDS011;40888;48.148;11.526;2023-04-16T06:53:29;0.87;;;0.87;;
22955;SDS011;40888;48.148;11.526;2023-04-16T06:55:55;1.20;;;1.10;;
22955;SDS011;40888;48.148;11.526;2023-04-16T06:58:21;0.90;;;0.90;;
22955;SDS011;40888;48.148;11.526;2023-04-16T07:00:46;0.83;;;0.83;;
22955;SDS011;40888;48.148;11.526;2023-04-16T07:03:12;1.03;;;1.03;;
22955;SDS011;40888;48.148;11.526;2023-04-16T07:05:38;0.97;;;0.90;;
22955;SDS011;40888;48.148;11.526;2023-04-16T07:08:04;0.53;;;0.50;;
22955;SDS011;40888;48.148;11.526;2023-04-16T07:10:30;0.50;;;0.50;;
22955;SDS011;40888;48.148;11.526;2023-04-16T07:12:55;1.10;;;1.00;;
22955;SDS011;40888;48.148;11.526;2023-04-16T07:15:21;0.70;;;0.70;;
22955;SDS011;40888;48.148;11.526;2023-04-16T07:17:47;0.47;;;0.47;;
22955;SDS011;40888;48.148;11.526;2023-04-16T07:20:13;0.90;;;0.80;;
22955;SDS011;40888;48.148;11.526;2023-04-16T07:22:38;0.70;;;0.70;;
22955;SDS011;40888;48.148;11.526;2023-04-16T07:25:04;0.60;;;0.60;;
22955;SDS011;40888;48.148;11.526;2023-04-16T07:27:30;0.60;;;0.60;;
22955;SDS011;40888;48.148;11.526;2023-04-16T07:29:56;0.90;;;0.70;;
22955;SDS011;40888;48.148;11.526;2023-04-16T07:32:21;0.67;;;0.67;;
22955;SDS011;40888;48.148;11.526;2023-04-16T07:34:48;0.60;;;0.60;;
22955;SDS011;40888;48.148;11.526;2023-04-16T07:37:13;0.63;;;0.50;;
22955;SDS011;40888;48.148;11.526;2023-04-16T07:39:39;2.50;;;0.80;;
22955;SDS011;40888;48.148;11.526;2023-04-16T07:42:05;0.53;;;0.53;;
22955;SDS011;40888;48.148;11.526;2023-04-16T07:44:31;0.57;;;0.57;;
22955;SDS011;40888;48.148;11.526;2023-04-16T07:46:57;0.40;;;0.40;;
22955;SDS011;40888;48.148;11.526;2023-04-16T07:49:22;0.90;;;0.50;;
22955;SDS011;40888;48.148;11.526;2023-04-16T07:51:48;0.30;;;0.30;;
22955;SDS011;40888;48.148;11.526;2023-04-16T07:54:14;0.83;;;0.50;;
22955;SDS011;40888;48.148;11.526;2023-04-16T07:56:40;0.40;;;0.40;;
22955;SDS011;40888;48.148;11.526;2023-04-16T07:59:05;0.57;;;0.50;;
22955;SDS011;40888;48.148;11.526;2023-04-16T08:01:31;0.30;;;0.30;;
22955;SDS011;40888;48.148;11.526;2023-04-16T08:03:57;0.30;;;0.30;;
22955;SDS011;40888;48.148;11.526;2023-04-16T08:06:23;0.40;;;0.40;;
22955;SDS011;40888;48.148;11.526;2023-04-16T08:08:50;0.97;;;0.30;;
22955;SDS011;40888;48.148;11.526;2023-04-16T08:11:16;0.50;;;0.50;;
22955;SDS011;40888;48.148;11.526;2023-04-16T08:13:42;0.20;;;0.20;;
22955;SDS011;40888;48.148;11.526;2023-04-16T08:16:07;0.67;;;0.40;;
22955;SDS011;40888;48.148;11.526;2023-04-16T08:18:33;0.37;;;0.37;;
22955;SDS011;40888;48.148;11.526;2023-04-16T08:20:59;2.30;;;0.40;;
22955;SDS011;40888;48.148;11.526;2023-04-16T08:23:25;0.40;;;0.40;;
22955;SDS011;40888;48.148;11.526;2023-04-16T08:25:50;0.50;;;0.50;;
22955;SDS011;40888;48.148;11.526;2023-04-16T08:28:16;0.40;;;0.40;;
22955;SDS011;40888;48.148;11.526;2023-04-16T08:30:42;0.77;;;0.30;;
22955;SDS011;40888;48.148;11.526;2023-04-16T08:33:09;0.30;;;0.30;;
22955;SDS011;40888;48.148;11.526;2023-04-16T08:35:36;0.37;;;0.37;;
22955;SDS011;40888;48.148;11.526;2023-04-16T08:38:02;0.70;;;0.40;;
22955;SDS011;40888;48.148;11.526;2023-04-16T08:40:28;0.40;;;0.30;;
22955;SDS011;40888;48.148;11.526;2023-04-16T08:42:57;0.20;;;0.20;;
22955;SDS011;40888;48.148;11.526;2023-04-16T08:45:24;0.40;;;0.40;;
22955;SDS011;40888;48.148;11.526;2023-04-16T08:47:51;0.43;;;0.43;;
22955;SDS011;40888;48.148;11.526;2023-04-16T08:50:23;0.43;;;0.33;;
22955;SDS011;40888;48.148;11.526;2023-04-16T08:53:02;0.67;;;0.60;;
22955;SDS011;40888;48.148;11.526;2023-04-16T08:55:35;0.43;;;0.30;;
22955;SDS011;40888;48.148;11.526;2023-04-16T08:58:17;0.30;;;0.30;;
22955;SDS011;40888;48.148;11.526;2023-04-16T09:00:45;0.57;;;0.40;;
22955;SDS011;40888;48.148;11.526;2023-04-16T09:03:11;0.20;;;0.20;;
22955;SDS011;40888;48.148;11.526;2023-04-16T09:05:37;0.30;;;0.30;;
22955;SDS011;40888;48.148;11.526;2023-04-16T09:08:03;0.33;;;0.33;;
22955;SDS011;40888;48.148;11.526;2023-04-16T09:10:30;0.20;;;0.20;;
22955;SDS011;40888;48.148;11.526;2023-04-16T09:12:56;0.20;;;0.20;;
22955;SDS011;40888;48.148;11.526;2023-04-16T09:15:22;0.70;;;0.20;;
22955;SDS011;40888;48.148;11.526;2023-04-16T09:17:51;0.10;;;0.10;;
22955;SDS011;40888;48.148;11.526;2023-04-16T09:20:17;0.13;;;0.13;;
22955;SDS011;40888;48.148;11.526;2023-04-16T09:22:43;0.10;;;0.10;;
22955;SDS011;40888;48.148;11.526;2023-04-16T09:25:10;0.40;;;0.40;;
22955;SDS011;40888;48.148;11.526;2023-04-16T09:27:37;0.23;;;0.23;;
22955;SDS011;40888;48.148;11.526;2023-04-16T09:30:24;0.30;;;0.30;;
22955;SDS011;40888;48.148;11.526;2023-04-16T09:32:51;1.33;;;0.20;;
22955;SDS011;40888;48.148;11.526;2023-04-16T09:35:45;0.20;;;0.20;;
22955;SDS011;40888;48.148;11.526;2023-04-16T09:38:16;0.40;;;0.30;;
22955;SDS011;40888;48.148;11.526;2023-04-16T09:40:42;0.40;;;0.20;;
22955;SDS011;40888;48.148;11.526;2023-04-16T09:43:14;1.27;;;0.30;;
22955;SDS011;40888;48.148;11.526;2023-04-16T09:45:49;0.20;;;0.20;;
22955;SDS011;40888;48.148;11.526;2023-04-16T09:48:20;0.20;;;0.20;;
22955;SDS011;40888;48.148;11.526;2023-04-16T09:50:53;0.20;;;0.20;;
22955;SDS011;40888;48.148;11.526;2023-04-16T09:53:26;0.23;;;0.23;;
22955;SDS011;40888;48.148;11.526;2023-04-16T09:55:59;0.30;;;0.30;;
22955;SDS011;40888;48.148;11.526;2023-04-16T09:58:36;0.23;;;0.23;;
22955;SDS011;40888;48.148;11.526;2023-04-16T10:01:09;0.20;;;0.20;;
22955;SDS011;40888;48.148;11.526;2023-04-16T10:03:36;0.20;;;0.20;;
22955;SDS011;40888;48.148;11.526;2023-04-16T10:08:42;0.50;;;0.40;;
22955;SDS011;40888;48.148;11.526;2023-04-16T10:11:11;0.13;;;0.13;;
22955;SDS011;40888;48.148;11.526;2023-04-16T10:13:37;0.50;;;0.40;;
22955;SDS011;40888;48.148;11.526;2023-04-16T10:16:03;0.53;;;0.30;;
22955;SDS011;40888;48.148;11.526;2023-04-16T10:18:29;0.23;;;0.23;;
22955;SDS011;40888;48.148;11.526;2023-04-16T10:20:55;0.63;;;0.30;;
22955;SDS011;40888;48.148;11.526;2023-04-16T10:23:22;0.83;;;0.50;;
22955;SDS011;40888;48.148;11.526;2023-04-16T10:25:48;0.10;;;0.10;;
22955;SDS011;40888;48.148;11.526;2023-04-16T10:28:15;0.47;;;0.30;;
22955;SDS011;40888;48.148;11.526;2023-04-16T10:30:44;0.27;;;0.20;;
22955;SDS011;40888;48.148;11.526;2023-04-16T10:33:24;0.20;;;0.20;;
22955;SDS011;40888;48.148;11.526;2023-04-16T10:35:52;0.30;;;0.30;;
22955;SDS011;40888;48.148;11.526;2023-04-16T10:38:38;0.30;;;0.30;;
22955;SDS011;40888;48.148;11.526;2023-04-16T10:41:12;2.80;;;0.40;;
22955;SDS011;40888;48.148;11.526;2023-04-16T10:43:39;0.40;;;0.40;;
22955;SDS011;40888;48.148;11.526;2023-04-16T10:48:44;0.43;;;0.27;;
22955;SDS011;40888;48.148;11.526;2023-04-16T10:53:50;0.27;;;0.27;;
22955;SDS011;40888;48.148;11.526;2023-04-16T10:58:48;1.33;;;0.50;;
22955;SDS011;40888;48.148;11.526;2023-04-16T11:01:14;0.40;;;0.40;;
22955;SDS011;40888;48.148;11.526;2023-04-16T11:03:41;0.30;;;0.30;;
22955;SDS011;40888;48.148;11.526;2023-04-16T11:06:11;0.37;;;0.37;;
22955;SDS011;40888;48.148;11.526;2023-04-16T11:08:38;0.43;;;0.30;;
22955;SDS011;40888;48.148;11.526;2023-04-16T11:11:05;0.50;;;0.50;;
22955;SDS011;40888;48.148;11.526;2023-04-16T11:13:31;0.37;;;0.37;;
22955;SDS011;40888;48.148;11.526;2023-04-16T11:15:59;1.00;;;0.60;;
22955;SDS011;40888;48.148;11.526;2023-04-16T11:18:25;0.80;;;0.80;;
22955;SDS011;40888;48.148;11.526;2023-04-16T11:20:51;0.50;;;0.33;;
22955;SDS011;40888;48.148;11.526;2023-04-16T11:23:17;1.40;;;1.10;;
22955;SDS011;40888;48.148;11.526;2023-04-16T11:25:43;0.80;;;0.80;;
22955;SDS011;40888;48.148;11.526;2023-04-16T11:28:09;3.13;;;2.83;;
22955;SDS011;40888;48.148;11.526;2023-04-16T11:30:35;20.00;;;12.03;;
22955;SDS011;40888;48.148;11.526;2023-04-16T11:33:09;5.03;;;3.10;;
22955;SDS011;40888;48.148;11.526;2023-04-16T11:35:36;3.10;;;2.70;;
22955;SDS011;40888;48.148;11.526;2023-04-16T11:38:07;6.20;;;3.00;;
22955;SDS011;40888;48.148;11.526;2023-04-16T11:40:33;4.00;;;3.23;;
22955;SDS011;40888;48.148;11.526;2023-04-16T11:43:00;1.53;;;1.10;;
22955;SDS011;40888;48.148;11.526;2023-04-16T11:45:55;0.43;;;0.43;;
22955;SDS011;40888;48.148;11.526;2023-04-16T11:48:21;0.50;;;0.50;;
22955;SDS011;40888;48.148;11.526;2023-04-16T11:50:54;0.50;;;0.50;;
22955;SDS011;40888;48.148;11.526;2023-04-16T11:53:23;0.60;;;0.60;;
22955;SDS011;40888;48.148;11.526;2023-04-16T11:55:48;0.47;;;0.47;;
22955;SDS011;40888;48.148;11.526;2023-04-16T11:58:14;0.50;;;0.50;;
22955;SDS011;40888;48.148;11.526;2023-04-16T12:00:40;7.13;;;3.77;;
22955;SDS011;40888;48.148;11.526;2023-04-16T12:03:06;0.30;;;0.27;;
22955;SDS011;40888;48.148;11.526;2023-04-16T12:08:00;2.00;;;0.80;;
22955;SDS011;40888;48.148;11.526;2023-04-16T12:10:28;0.50;;;0.50;;
22955;SDS011;40888;48.148;11.526;2023-04-16T12:13:14;0.30;;;0.30;;
22955;SDS011;40888;48.148;11.526;2023-04-16T12:15:48;0.47;;;0.40;;
22955;SDS011;40888;48.148;11.526;2023-04-16T12:18:18;0.60;;;0.60;;
22955;SDS011;40888;48.148;11.526;2023-04-16T12:20:46;0.40;;;0.40;;
22955;SDS011;40888;48.148;11.526;2023-04-16T12:23:26;9.37;;;4.70;;
22955;SDS011;40888;48.148;11.526;2023-04-16T12:25:53;0.63;;;0.63;;
22955;SDS011;40888;48.148;11.526;2023-04-16T12:28:28;0.50;;;0.50;;
22955;SDS011;40888;48.148;11.526;2023-04-16T12:30:56;0.67;;;0.67;;
22955;SDS011;40888;48.148;11.526;2023-04-16T12:33:22;0.70;;;0.60;;
22955;SDS011;40888;48.148;11.526;2023-04-16T12:35:48;0.53;;;0.53;;
22955;SDS011;40888;48.148;11.526;2023-04-16T12:38:14;0.40;;;0.40;;
22955;SDS011;40888;48.148;11.526;2023-04-16T12:40:41;0.80;;;0.80;;
22955;SDS011;40888;48.148;11.526;2023-04-16T12:43:07;0.80;;;0.50;;
22955;SDS011;40888;48.148;11.526;2023-04-16T12:45:34;0.67;;;0.67;;
22955;SDS011;40888;48.148;11.526;2023-04-16T12:47:59;0.50;;;0.50;;
22955;SDS011;40888;48.148;11.526;2023-04-16T12:50:25;1.13;;;0.50;;
22955;SDS011;40888;48.148;11.526;2023-04-16T12:52:54;0.70;;;0.70;;
22955;SDS011;40888;48.148;11.526;2023-04-16T12:55:20;0.50;;;0.50;;
22955;SDS011;40888;48.148;11.526;2023-04-16T12:57:46;0.40;;;0.40;;
22955;SDS011;40888;48.148;11.526;2023-04-16T13:00:13;0.57;;;0.50;;
22955;SDS011;40888;48.148;11.526;2023-04-16T13:02:40;1.83;;;0.63;;
22955;SDS011;40888;48.148;11.526;2023-04-16T13:05:06;0.87;;;0.60;;
22955;SDS011;40888;48.148;11.526;2023-04-16T13:07:33;0.70;;;0.60;;
22955;SDS011;40888;48.148;11.526;2023-04-16T13:09:59;0.77;;;0.77;;
22955;SDS011;40888;48.148;11.526;2023-04-16T13:12:25;0.50;;;0.40;;
22955;SDS011;40888;48.148;11.526;2023-04-16T13:14:52;0.60;;;0.50;;
22955;SDS011;40888;48.148;11.526;2023-04-16T13:17:18;0.50;;;0.40;;
22955;SDS011;40888;48.148;11.526;2023-04-16T13:19:43;0.73;;;0.50;;
22955;SDS011;40888;48.148;11.526;2023-04-16T13:22:09;0.77;;;0.77;;
22955;SDS011;40888;48.148;11.526;2023-04-16T13:24:35;1.03;;;0.90;;
22955;SDS011;40888;48.148;11.526;2023-04-16T13:27:02;0.80;;;0.80;;
22955;SDS011;40888;48.148;11.526;2023-04-16T13:29:27;0.77;;;0.60;;
22955;SDS011;40888;48.148;11.526;2023-04-16T13:31:54;1.17;;;0.60;;
22955;SDS011;40888;48.148;11.526;2023-04-16T13:34:20;0.70;;;0.70;;
22955;SDS011;40888;48.148;11.526;2023-04-16T13:36:46;0.50;;;0.50;;
22955;SDS011;40888;48.148;11.526;2023-04-16T13:39:12;0.50;;;0.50;;
22955;SDS011;40888;48.148;11.526;2023-04-16T13:41:39;0.40;;;0.40;;
22955;SDS011;40888;48.148;11.526;2023-04-16T13:44:06;2.73;;;0.70;;
22955;SDS011;40888;48.148;11.526;2023-04-16T13:46:32;0.50;;;0.50;;
22955;SDS011;40888;48.148;11.526;2023-04-16T13:48:58;0.67;;;0.40;;
22955;SDS011;40888;48.148;11.526;2023-04-16T13:51:23;0.30;;;0.23;;
22955;SDS011;40888;48.148;11.526;2023-04-16T13:53:49;1.27;;;0.60;;
22955;SDS011;40888;48.148;11.526;2023-04-16T13:56:15;0.77;;;0.60;;
22955;SDS011;40888;48.148;11.526;2023-04-16T13:58:41;0.57;;;0.57;;
22955;SDS011;40888;48.148;11.526;2023-04-16T14:01:06;0.50;;;0.50;;
22955;SDS011;40888;48.148;11.526;2023-04-16T14:03:33;0.80;;;0.80;;
22955;SDS011;40888;48.148;11.526;2023-04-16T14:06:01;0.33;;;0.33;;
22955;SDS011;40888;48.148;11.526;2023-04-16T14:08:27;0.50;;;0.50;;
22955;SDS011;40888;48.148;11.526;2023-04-16T14:10:53;0.40;;;0.40;;
22955;SDS011;40888;48.148;11.526;2023-04-16T14:13:20;0.40;;;0.40;;
22955;SDS011;40888;48.148;11.526;2023-04-16T14:15:46;0.40;;;0.40;;
22955;SDS011;40888;48.148;11.526;2023-04-16T14:18:12;0.20;;;0.20;;
22955;SDS011;40888;48.148;11.526;2023-04-16T14:20:40;0.50;;;0.50;;
22955;SDS011;40888;48.148;11.526;2023-04-16T14:23:10;0.53;;;0.53;;
22955;SDS011;40888;48.148;11.526;2023-04-16T14:25:36;0.60;;;0.40;;
22955;SDS011;40888;48.148;11.526;2023-04-16T14:28:02;0.40;;;0.40;;
22955;SDS011;40888;48.148;11.526;2023-04-16T14:30:28;0.63;;;0.53;;
22955;SDS011;40888;48.148;11.526;2023-04-16T14:32:54;0.50;;;0.47;;
22955;SDS011;40888;48.148;11.526;2023-04-16T14:35:20;0.53;;;0.53;;
22955;SDS011;40888;48.148;11.526;2023-04-16T14:37:45;0.60;;;0.60;;
22955;SDS011;40888;48.148;11.526;2023-04-16T14:40:11;0.70;;;0.70;;
22955;SDS011;40888;48.148;11.526;2023-04-16T14:42:37;0.83;;;0.50;;
22955;SDS011;40888;48.148;11.526;2023-04-16T14:45:03;0.57;;;0.47;;